A320 da LATAM sofre tail strike durante o pouso em Florianópolis, veja imagens

2
628

Um Airbus A320-200 da LATAM (matrícula PR-MHW) que fazia o voo JJ-4753 entre Rio de Janeiro, RJ e Florianópolis, SC, sofreu um tail strike durante o pouso em Florianópolis no último dia 26/11/2017.

A aeronave pousou na cabeceira 14 às 21h40LT, durante o pouso a cauda da aeronave raspou na pista causando danos na pintura e no cone de cauda da aeronave, a tripulação prosseguiu para o gate sem demais problemas, após o corte dos motores e efetuado o estacionamento em segurança da aeronave uma equipe de manutenção fez a inspeção externa visual e de fato confirmou que a aeronave havia sofrido o tail strike.

Ninguém ficou ferido a bordo da aeronave e durante uma inspeção visual de pista foi observado uma marca que ficou no asfalto e na tinta da centerline da cabeceira 14 revelando que a aeronave havia mesmo sofrido o strike em Florianópolis.

Em nota a LATAM informou que a aeronave está afastada do serviço para manutenção

METARS do aeroporto próximo ao intervalo do incidente

SBFL 270100Z 21004KT CAVOK 22/16 Q1010=
SBFL 270000Z 19006KT 9999 FEW045 22/16 Q1009=
SBFL 262300Z 15008KT 9999 SCT043 21/17 Q1009=
SBFL 262200Z 14008KT 9999 SCT040 21/17 Q1008=
SBFL 262100Z 18010KT 9999 SCT036 23/17 Q1007=
SBFL 262000Z 19012KT 9999 SCT036 25/17 Q1007=
SBFL 261900Z 18010KT 9999 SCT036 25/17 Q1006=

 

 

Advertisements
Advertisements

Comments

comments

2 COMMENTS

LEAVE A REPLY

Please enter your comment!
Please enter your name here